createdAt,value
2023-03-27T00:00:06.096Z,5.62
2023-03-27T00:01:06.077Z,5.59
2023-03-27T00:02:06.103Z,5.56
2023-03-27T00:03:06.194Z,5.59
2023-03-27T00:04:06.082Z,5.60
2023-03-27T00:05:06.044Z,5.59
2023-03-27T00:06:06.043Z,5.56
2023-03-27T00:07:06.016Z,5.56
2023-03-27T00:08:06.023Z,5.58
2023-03-27T00:09:06.009Z,5.60
2023-03-27T00:10:05.996Z,5.62
2023-03-27T00:11:05.982Z,5.62
2023-03-27T00:12:05.987Z,5.63
2023-03-27T00:13:05.964Z,5.62
2023-03-27T00:14:05.959Z,5.59
2023-03-27T00:15:05.941Z,5.60
2023-03-27T00:16:05.910Z,5.60
2023-03-27T00:17:06.041Z,5.60
2023-03-27T00:18:05.952Z,5.60
2023-03-27T00:19:05.885Z,5.60
2023-03-27T00:20:05.870Z,5.60
2023-03-27T00:21:05.878Z,5.60
2023-03-27T00:22:05.856Z,5.59
2023-03-27T00:23:05.837Z,5.59
2023-03-27T00:24:05.852Z,5.58
2023-03-27T00:25:05.815Z,5.58
2023-03-27T00:26:05.814Z,5.56
2023-03-27T00:27:05.785Z,5.55
2023-03-27T00:28:05.781Z,5.55
2023-03-27T00:29:05.782Z,5.55
2023-03-27T00:30:05.788Z,5.55
2023-03-27T00:31:05.793Z,5.56
2023-03-27T00:32:05.750Z,5.56
2023-03-27T00:33:05.782Z,5.58
2023-03-27T00:34:05.722Z,5.56
2023-03-27T00:35:05.721Z,5.58
2023-03-27T00:36:05.757Z,5.56
2023-03-27T00:37:05.771Z,5.52
2023-03-27T00:38:05.672Z,5.51
2023-03-27T00:39:05.656Z,5.52
2023-03-27T00:40:05.660Z,5.55
2023-03-27T00:41:05.684Z,5.58
2023-03-27T00:42:05.639Z,5.58
2023-03-27T00:43:05.631Z,5.58
2023-03-27T00:44:05.607Z,5.58
2023-03-27T00:45:05.602Z,5.59
2023-03-27T00:46:05.601Z,5.58
2023-03-27T00:47:05.568Z,5.56
2023-03-27T00:48:05.610Z,5.56
2023-03-27T00:49:05.557Z,5.56
2023-03-27T00:50:05.555Z,5.59
2023-03-27T00:51:05.529Z,5.55
2023-03-27T00:52:05.519Z,5.51
2023-03-27T00:53:05.499Z,5.51
2023-03-27T00:54:05.517Z,5.49
2023-03-27T00:55:05.500Z,5.48
2023-03-27T00:56:05.461Z,5.48
2023-03-27T00:57:05.542Z,5.48
2023-03-27T00:58:05.454Z,5.49
2023-03-27T00:59:05.450Z,5.49
2023-03-27T01:00:06.671Z,5.47
2023-03-27T01:01:05.464Z,5.47
2023-03-27T01:02:05.407Z,5.45
2023-03-27T01:03:05.582Z,5.48
2023-03-27T01:04:05.396Z,5.48
2023-03-27T01:05:05.367Z,5.51
2023-03-27T01:06:05.363Z,5.52
2023-03-27T01:07:05.342Z,5.52
2023-03-27T01:08:05.359Z,5.52
2023-03-27T01:09:05.344Z,5.55
2023-03-27T01:10:05.306Z,5.55
2023-03-27T01:11:05.292Z,5.56
2023-03-27T01:12:05.299Z,5.56
2023-03-27T01:13:05.293Z,5.56
2023-03-27T01:14:05.292Z,5.56
2023-03-27T01:15:05.271Z,5.58
2023-03-27T01:16:05.303Z,5.55
2023-03-27T01:17:05.229Z,5.52
2023-03-27T01:18:05.322Z,5.49
2023-03-27T01:19:05.235Z,5.48
2023-03-27T01:20:05.192Z,5.47
2023-03-27T01:21:05.188Z,5.45
2023-03-27T01:22:05.176Z,5.45
2023-03-27T01:23:05.175Z,5.48
2023-03-27T01:24:05.167Z,5.47
2023-03-27T01:25:05.155Z,5.48
2023-03-27T01:26:05.121Z,5.49
2023-03-27T01:27:05.130Z,5.49
2023-03-27T01:28:05.123Z,5.52
2023-03-27T01:29:05.110Z,5.58
2023-03-27T01:30:05.079Z,5.62
2023-03-27T01:31:05.154Z,5.66
2023-03-27T01:32:05.074Z,5.67
2023-03-27T01:33:05.116Z,5.66
2023-03-27T01:34:05.026Z,5.66
2023-03-27T01:35:05.028Z,5.66
2023-03-27T01:36:05.019Z,5.66
2023-03-27T01:37:05.060Z,5.65
2023-03-27T01:38:05.004Z,5.63
2023-03-27T01:39:05.000Z,5.62
2023-03-27T01:40:04.997Z,5.62
2023-03-27T01:41:04.962Z,5.63
2023-03-27T01:42:04.961Z,5.63
2023-03-27T01:43:04.951Z,5.63
2023-03-27T01:44:04.922Z,5.62
2023-03-27T01:45:04.930Z,5.63
2023-03-27T01:46:04.914Z,5.60
2023-03-27T01:47:05.026Z,5.58
2023-03-27T01:48:04.989Z,5.58
2023-03-27T01:49:04.902Z,5.55
2023-03-27T01:50:04.854Z,5.55
2023-03-27T01:51:04.860Z,5.51
2023-03-27T01:52:04.834Z,5.52
2023-03-27T01:53:04.855Z,5.51
2023-03-27T01:54:04.824Z,5.51
2023-03-27T01:55:04.832Z,5.49
2023-03-27T01:56:04.797Z,5.48
2023-03-27T01:57:04.855Z,5.49
2023-03-27T01:58:04.773Z,5.45
2023-03-27T01:59:04.768Z,5.47
2023-03-27T02:00:18.475Z,5.47
2023-03-27T02:01:05.085Z,5.48
2023-03-27T02:02:04.736Z,5.47
2023-03-27T02:03:04.758Z,5.47
2023-03-27T02:04:04.716Z,5.44
2023-03-27T02:05:04.746Z,5.47
2023-03-27T02:06:04.698Z,5.47
2023-03-27T02:07:04.680Z,5.47
2023-03-27T02:08:04.678Z,5.47
2023-03-27T02:09:04.653Z,5.47
2023-03-27T02:10:04.641Z,5.47
2023-03-27T02:11:04.636Z,5.47
2023-03-27T02:12:04.619Z,5.47
2023-03-27T02:13:04.603Z,5.44
2023-03-27T02:14:04.606Z,5.42
2023-03-27T02:15:23.833Z,5.42
2023-03-27T02:16:04.645Z,5.44
2023-03-27T02:17:04.586Z,5.42
2023-03-27T02:18:04.550Z,5.44
2023-03-27T02:19:04.540Z,5.42
2023-03-27T02:20:04.536Z,5.42
2023-03-27T02:21:04.532Z,5.42
2023-03-27T02:22:04.509Z,5.42
2023-03-27T02:23:04.500Z,5.42
2023-03-27T02:24:04.487Z,5.42
2023-03-27T02:25:04.481Z,5.41
2023-03-27T02:26:04.448Z,5.41
2023-03-27T02:27:04.462Z,5.41
2023-03-27T02:28:04.439Z,5.35
2023-03-27T02:29:04.453Z,5.30
2023-03-27T02:30:04.410Z,5.27
2023-03-27T02:31:31.701Z,5.23
2023-03-27T02:32:04.456Z,5.23
2023-03-27T02:33:04.501Z,5.29
2023-03-27T02:34:04.375Z,5.30
2023-03-27T02:35:04.372Z,5.29
2023-03-27T02:36:04.405Z,5.26
2023-03-27T02:37:04.342Z,5.23
2023-03-27T02:38:04.331Z,5.24
2023-03-27T02:39:04.334Z,5.29
2023-03-27T02:40:04.326Z,5.33
2023-03-27T02:41:04.308Z,5.37
2023-03-27T02:42:04.284Z,5.38
2023-03-27T02:43:04.266Z,5.40
2023-03-27T02:44:04.255Z,5.41
2023-03-27T02:45:04.265Z,5.41
2023-03-27T02:46:04.296Z,5.40
2023-03-27T02:47:04.213Z,5.41
2023-03-27T02:48:04.227Z,5.41
2023-03-27T02:49:04.198Z,5.41
2023-03-27T02:50:04.203Z,5.41
2023-03-27T02:51:04.195Z,5.40
2023-03-27T02:52:04.180Z,5.37
2023-03-27T02:53:04.179Z,5.33
2023-03-27T02:54:04.154Z,5.24
2023-03-27T02:55:04.151Z,5.23
2023-03-27T02:56:04.122Z,5.23
2023-03-27T02:57:04.186Z,5.23
2023-03-27T02:58:04.108Z,5.20
2023-03-27T02:59:04.146Z,5.19
2023-03-27T03:00:04.091Z,5.14
2023-03-27T03:01:04.098Z,5.11
2023-03-27T03:02:04.106Z,5.08
2023-03-27T03:03:04.120Z,5.02
2023-03-27T03:04:04.047Z,4.99
2023-03-27T03:05:04.088Z,4.93
2023-03-27T03:06:04.003Z,4.94
2023-03-27T03:07:04.008Z,4.93
2023-03-27T03:08:03.996Z,4.91
2023-03-27T03:09:03.987Z,4.93
2023-03-27T03:10:03.995Z,4.87
2023-03-27T03:11:03.969Z,4.86
2023-03-27T03:12:03.955Z,4.79
2023-03-27T03:13:03.956Z,4.83
2023-03-27T03:14:03.939Z,4.80
2023-03-27T03:15:03.939Z,4.87
2023-03-27T03:16:03.904Z,4.88
2023-03-27T03:17:03.900Z,4.87
2023-03-27T03:18:03.926Z,4.88
2023-03-27T03:19:03.884Z,4.90
2023-03-27T03:20:03.860Z,4.86
2023-03-27T03:21:03.864Z,4.77
2023-03-27T03:22:03.858Z,4.77
2023-03-27T03:23:03.827Z,4.75
2023-03-27T03:24:03.843Z,4.75
2023-03-27T03:25:03.839Z,4.71
2023-03-27T03:26:03.805Z,4.67
2023-03-27T03:27:03.800Z,4.68
2023-03-27T03:28:03.773Z,4.68
2023-03-27T03:29:03.752Z,4.67
2023-03-27T03:30:03.753Z,4.64
2023-03-27T03:31:03.773Z,4.67
2023-03-27T03:32:03.735Z,4.69
2023-03-27T03:33:03.717Z,4.69
2023-03-27T03:34:03.706Z,4.68
2023-03-27T03:35:03.703Z,4.67
2023-03-27T03:36:03.726Z,4.64
2023-03-27T03:37:03.683Z,4.57
2023-03-27T03:38:03.655Z,4.49
2023-03-27T03:39:03.660Z,4.46
2023-03-27T03:40:03.647Z,4.50
2023-03-27T03:41:03.647Z,4.51
2023-03-27T03:42:03.634Z,4.56
2023-03-27T03:43:03.611Z,4.64
2023-03-27T03:44:03.603Z,4.61
2023-03-27T03:45:03.605Z,4.57
2023-03-27T03:46:03.590Z,4.54
2023-03-27T03:47:03.568Z,4.56
2023-03-27T03:48:03.586Z,4.59
2023-03-27T03:49:03.543Z,4.62
2023-03-27T03:50:03.539Z,4.59
2023-03-27T03:51:03.513Z,4.61
2023-03-27T03:52:04.954Z,4.61
2023-03-27T03:53:03.486Z,4.57
2023-03-27T03:54:03.467Z,4.59
2023-03-27T03:55:03.473Z,4.59
2023-03-27T03:56:03.441Z,4.62
2023-03-27T03:57:03.560Z,4.62
2023-03-27T03:58:03.434Z,4.62
2023-03-27T03:59:03.409Z,4.64
2023-03-27T04:00:03.424Z,4.62
2023-03-27T04:01:03.391Z,4.64
2023-03-27T04:02:03.546Z,4.64
2023-03-27T04:03:03.451Z,4.62
2023-03-27T04:04:03.380Z,4.61
2023-03-27T04:05:08.977Z,4.53
2023-03-27T04:06:03.340Z,4.49
2023-03-27T04:07:03.338Z,4.44
2023-03-27T04:08:03.322Z,4.46
2023-03-27T04:09:03.296Z,4.43
2023-03-27T04:10:03.300Z,4.46
2023-03-27T04:11:03.305Z,4.46
2023-03-27T04:12:03.272Z,4.47
2023-03-27T04:13:03.281Z,4.44
2023-03-27T04:14:03.249Z,4.46
2023-03-27T04:15:03.237Z,4.47
2023-03-27T04:16:03.268Z,4.47
2023-03-27T04:17:03.228Z,4.43
2023-03-27T04:18:03.290Z,4.39
2023-03-27T04:19:03.197Z,4.36
2023-03-27T04:20:03.192Z,4.35
2023-03-27T04:21:03.178Z,4.36
2023-03-27T04:22:03.149Z,4.36
2023-03-27T04:23:03.144Z,4.38
2023-03-27T04:24:03.157Z,4.38
2023-03-27T04:25:03.137Z,4.39
2023-03-27T04:26:03.206Z,4.44
2023-03-27T04:27:03.114Z,4.47
2023-03-27T04:28:03.118Z,4.44
2023-03-27T04:29:03.092Z,4.34
2023-03-27T04:30:03.107Z,4.29
2023-03-27T04:31:03.091Z,4.24
2023-03-27T04:32:03.042Z,4.24
2023-03-27T04:33:03.167Z,4.24
2023-03-27T04:34:03.034Z,4.25
2023-03-27T04:35:03.010Z,4.25
2023-03-27T04:36:06.350Z,4.24
2023-03-27T04:37:02.986Z,4.17
2023-03-27T04:38:02.993Z,4.11
2023-03-27T04:39:02.981Z,4.04
2023-03-27T04:40:02.978Z,3.96
2023-03-27T04:41:02.938Z,3.93
2023-03-27T04:42:02.947Z,3.93
2023-03-27T04:43:02.930Z,3.86
2023-03-27T04:44:02.914Z,3.84
2023-03-27T04:45:02.921Z,3.80
2023-03-27T04:46:02.908Z,3.77
2023-03-27T04:47:02.919Z,3.75
2023-03-27T04:48:02.932Z,3.70
2023-03-27T04:49:02.862Z,3.63
2023-03-27T04:50:02.841Z,3.60
2023-03-27T04:51:02.856Z,3.60
2023-03-27T04:52:02.842Z,3.59
2023-03-27T04:53:02.840Z,3.57
2023-03-27T04:54:02.804Z,3.57
2023-03-27T04:55:02.808Z,3.57
2023-03-27T04:56:02.785Z,3.59
2023-03-27T04:57:02.816Z,3.53
2023-03-27T04:58:02.797Z,3.52
2023-03-27T04:59:02.738Z,3.53
2023-03-27T05:00:02.747Z,3.49
2023-03-27T05:01:02.743Z,3.50
2023-03-27T05:02:02.709Z,3.49
2023-03-27T05:03:02.805Z,3.52
2023-03-27T05:04:02.771Z,3.54
2023-03-27T05:05:02.680Z,3.54
2023-03-27T05:06:02.684Z,3.57
2023-03-27T05:07:02.687Z,3.57
2023-03-27T05:08:02.638Z,3.56
2023-03-27T05:09:02.642Z,3.56
2023-03-27T05:10:02.649Z,3.59
2023-03-27T05:11:02.657Z,3.63
2023-03-27T05:12:02.610Z,3.64
2023-03-27T05:13:02.594Z,3.68
2023-03-27T05:14:02.570Z,3.68
2023-03-27T05:15:02.560Z,3.67
2023-03-27T05:16:02.604Z,3.68
2023-03-27T05:17:02.533Z,3.67
2023-03-27T05:18:02.578Z,3.68
2023-03-27T05:19:02.531Z,3.68
2023-03-27T05:20:02.509Z,3.67
2023-03-27T05:21:02.496Z,3.67
2023-03-27T05:22:02.503Z,3.62
2023-03-27T05:23:02.509Z,3.57
2023-03-27T05:24:02.476Z,3.50
2023-03-27T05:25:02.484Z,3.52
2023-03-27T05:26:02.473Z,3.54
2023-03-27T05:27:02.424Z,3.57
2023-03-27T05:28:02.412Z,3.50
2023-03-27T05:29:02.421Z,3.49
2023-03-27T05:30:02.449Z,3.49
2023-03-27T05:31:02.445Z,3.50
2023-03-27T05:32:02.400Z,3.53
2023-03-27T05:33:02.397Z,3.52
2023-03-27T05:34:02.385Z,3.53
2023-03-27T05:35:02.332Z,3.42
2023-03-27T05:36:02.373Z,3.33
2023-03-27T05:37:02.358Z,3.25
2023-03-27T05:38:02.338Z,3.22
2023-03-27T05:39:02.308Z,3.23
2023-03-27T05:40:02.293Z,3.26
2023-03-27T05:41:02.310Z,3.25
2023-03-27T05:42:02.252Z,3.22
2023-03-27T05:43:02.259Z,3.22
2023-03-27T05:44:02.254Z,3.23
2023-03-27T05:45:02.276Z,3.23
2023-03-27T05:46:02.258Z,3.20
2023-03-27T05:47:02.229Z,3.16
2023-03-27T05:48:02.284Z,3.16
2023-03-27T05:49:02.195Z,3.12
2023-03-27T05:50:02.217Z,3.08
2023-03-27T05:51:02.192Z,3.10
2023-03-27T05:52:02.150Z,3.13
2023-03-27T05:53:02.168Z,3.10
2023-03-27T05:54:02.139Z,3.07
2023-03-27T05:55:02.127Z,3.01
2023-03-27T05:56:02.931Z,2.95
2023-03-27T05:57:02.143Z,2.97
2023-03-27T05:58:02.085Z,2.95
2023-03-27T05:59:02.096Z,2.89
2023-03-27T06:00:02.053Z,2.89
2023-03-27T06:01:02.057Z,2.89
2023-03-27T06:02:02.073Z,2.86
2023-03-27T06:03:02.162Z,2.86
2023-03-27T06:04:02.111Z,2.83
2023-03-27T06:05:01.993Z,2.81
2023-03-27T06:06:02.009Z,2.79
2023-03-27T06:07:01.998Z,2.76
2023-03-27T06:08:02.000Z,2.76
2023-03-27T06:09:01.959Z,2.77
2023-03-27T06:10:01.994Z,2.79
2023-03-27T06:11:01.947Z,2.83
2023-03-27T06:12:01.942Z,2.84
2023-03-27T06:13:01.931Z,2.80
2023-03-27T06:14:01.912Z,2.80
2023-03-27T06:15:01.881Z,2.77
2023-03-27T06:16:01.930Z,2.73
2023-03-27T06:17:01.869Z,2.71
2023-03-27T06:18:01.920Z,2.73
2023-03-27T06:19:01.864Z,2.71
2023-03-27T06:20:01.863Z,2.71
2023-03-27T06:21:01.834Z,2.71
2023-03-27T06:22:01.839Z,2.71
2023-03-27T06:23:01.826Z,2.73
2023-03-27T06:24:01.849Z,2.73
2023-03-27T06:25:01.811Z,2.62
2023-03-27T06:26:01.791Z,2.66
2023-03-27T06:27:01.789Z,2.74
2023-03-27T06:28:01.762Z,2.74
2023-03-27T06:29:01.749Z,2.81
2023-03-27T06:30:01.736Z,2.84
2023-03-27T06:31:01.768Z,2.84
2023-03-27T06:32:01.697Z,2.84
2023-03-27T06:33:01.711Z,2.87
2023-03-27T06:34:01.691Z,2.89
2023-03-27T06:35:01.663Z,2.84
2023-03-27T06:36:01.701Z,2.84
2023-03-27T06:37:01.662Z,2.89
2023-03-27T06:38:01.669Z,2.90
2023-03-27T06:39:01.637Z,2.89
2023-03-27T06:40:01.629Z,2.74
2023-03-27T06:41:01.619Z,2.74
2023-03-27T06:42:01.586Z,2.80
2023-03-27T06:43:01.597Z,2.79
2023-03-27T06:44:01.580Z,2.77
2023-03-27T06:45:01.687Z,2.77
2023-03-27T06:46:01.581Z,2.76
2023-03-27T06:47:01.689Z,2.77
2023-03-27T06:48:16.268Z,2.66
2023-03-27T06:49:01.521Z,2.62
2023-03-27T06:50:01.499Z,2.59
2023-03-27T06:51:01.535Z,2.56
2023-03-27T06:52:01.592Z,2.45
2023-03-27T06:53:02.164Z,2.40
2023-03-27T06:54:01.502Z,2.38
2023-03-27T06:55:01.578Z,2.41
2023-03-27T06:56:01.634Z,2.41
2023-03-27T06:57:01.468Z,2.41
2023-03-27T06:58:01.443Z,2.40
2023-03-27T06:59:01.434Z,2.40
2023-03-27T07:00:02.434Z,2.37
2023-03-27T07:01:01.400Z,2.26
2023-03-27T07:02:01.504Z,2.26
2023-03-27T07:03:01.422Z,2.23
2023-03-27T07:04:01.337Z,2.22
2023-03-27T07:05:04.890Z,2.23
2023-03-27T07:06:01.662Z,2.26
2023-03-27T07:07:01.318Z,2.23
2023-03-27T07:08:11.119Z,2.23
2023-03-27T07:09:01.313Z,2.22
2023-03-27T07:10:01.287Z,2.25
2023-03-27T07:11:11.672Z,2.27
2023-03-27T07:12:01.281Z,2.25
2023-03-27T07:13:01.254Z,2.19
2023-03-27T07:14:01.267Z,2.20
2023-03-27T07:15:01.211Z,2.19
2023-03-27T07:16:01.261Z,2.19
2023-03-27T07:17:01.194Z,2.19
2023-03-27T07:18:01.246Z,2.23
2023-03-27T07:19:02.417Z,2.27
2023-03-27T07:20:01.166Z,2.33
2023-03-27T07:21:01.186Z,2.40
2023-03-27T07:22:01.153Z,2.47
2023-03-27T07:23:01.145Z,2.50
2023-03-27T07:24:01.147Z,2.50
2023-03-27T07:25:01.109Z,2.53
2023-03-27T07:26:01.099Z,2.50
2023-03-27T07:27:01.088Z,2.47
2023-03-27T07:28:01.066Z,2.50
2023-03-27T07:29:01.070Z,2.53
2023-03-27T07:30:01.058Z,2.59
2023-03-27T07:31:01.039Z,2.62
2023-03-27T07:32:05.395Z,2.56
2023-03-27T07:33:01.064Z,2.56
2023-03-27T07:34:01.111Z,2.62
2023-03-27T07:35:00.988Z,2.68
2023-03-27T07:36:01.086Z,2.76
2023-03-27T07:37:00.987Z,2.81
2023-03-27T07:38:00.962Z,2.84
2023-03-27T07:39:00.946Z,2.89
2023-03-27T07:40:00.949Z,2.94
2023-03-27T07:41:00.938Z,2.90
2023-03-27T07:42:00.927Z,2.92
2023-03-27T07:43:00.919Z,2.92
2023-03-27T07:44:00.908Z,2.84
2023-03-27T07:45:02.788Z,2.81
2023-03-27T07:46:00.907Z,2.83
2023-03-27T07:47:00.880Z,2.83
2023-03-27T07:48:00.914Z,2.81
2023-03-27T07:49:00.865Z,2.83
2023-03-27T07:50:00.834Z,2.86
2023-03-27T07:51:10.842Z,2.87
2023-03-27T07:52:00.819Z,2.89
2023-03-27T07:53:00.796Z,2.94
2023-03-27T07:54:00.799Z,2.90
2023-03-27T07:55:00.840Z,2.90
2023-03-27T07:56:00.779Z,2.95
2023-03-27T07:57:00.899Z,2.98
2023-03-27T07:58:02.886Z,2.98
2023-03-27T07:59:00.742Z,2.98
2023-03-27T08:00:00.747Z,2.98
2023-03-27T08:01:00.726Z,2.89
2023-03-27T08:02:00.697Z,2.89
2023-03-27T08:03:00.801Z,2.83
2023-03-27T08:04:00.850Z,2.83
2023-03-27T08:05:00.744Z,2.84
2023-03-27T08:06:00.810Z,2.87
2023-03-27T08:07:00.712Z,2.92
2023-03-27T08:08:00.660Z,2.99
2023-03-27T08:09:02.674Z,2.99
2023-03-27T08:10:00.618Z,3.02
2023-03-27T08:11:00.595Z,3.04
2023-03-27T08:12:00.611Z,3.02
2023-03-27T08:13:00.591Z,3.07
2023-03-27T08:14:00.575Z,3.08
2023-03-27T08:15:00.559Z,3.12
2023-03-27T08:16:00.547Z,3.02
2023-03-27T08:17:14.504Z,3.02
2023-03-27T08:18:00.579Z,3.08
2023-03-27T08:19:00.512Z,3.10
2023-03-27T08:20:00.520Z,3.04
2023-03-27T08:21:00.495Z,2.94
2023-03-27T08:22:00.648Z,2.76
2023-03-27T08:23:00.453Z,2.74
2023-03-27T08:24:00.481Z,2.79
2023-03-27T08:25:00.467Z,2.84
2023-03-27T08:27:00.432Z,2.99
2023-03-27T08:28:00.390Z,3.01
2023-03-27T08:29:00.394Z,2.99
2023-03-27T08:30:00.404Z,2.98
2023-03-27T08:31:02.987Z,2.94
2023-03-27T08:32:00.446Z,2.94
2023-03-27T08:33:00.436Z,2.92
2023-03-27T08:34:00.325Z,2.90
2023-03-27T08:35:00.347Z,2.90
2023-03-27T08:36:00.401Z,2.86
2023-03-27T08:37:00.325Z,2.80
2023-03-27T08:38:00.304Z,2.80
2023-03-27T08:39:00.341Z,2.79
2023-03-27T08:40:00.266Z,2.81
2023-03-27T08:41:00.260Z,2.86
2023-03-27T08:42:00.275Z,2.94
2023-03-27T08:43:00.255Z,2.99
2023-03-27T08:44:00.234Z,2.98
2023-03-27T08:45:00.259Z,2.94
2023-03-27T08:46:00.449Z,2.94
2023-03-27T08:47:00.226Z,2.98
2023-03-27T08:48:00.257Z,3.01
2023-03-27T08:49:00.160Z,3.04
2023-03-27T08:50:00.229Z,3.10
2023-03-27T08:51:00.210Z,3.12
2023-03-27T08:52:00.131Z,3.07
2023-03-27T08:53:00.148Z,3.12
2023-03-27T08:54:00.127Z,3.02
2023-03-27T08:55:00.167Z,3.02
2023-03-27T08:56:00.112Z,3.04
2023-03-27T08:57:00.234Z,3.01
2023-03-27T08:58:00.108Z,2.98
2023-03-27T08:59:00.050Z,2.98
2023-03-27T09:00:00.093Z,3.01
2023-03-27T09:01:00.052Z,3.08
2023-03-27T09:02:00.064Z,3.16
2023-03-27T09:03:00.237Z,3.22
2023-03-27T09:04:00.187Z,3.25
2023-03-27T09:05:00.003Z,3.26
2023-03-27T09:06:00.021Z,3.28
2023-03-27T09:06:59.972Z,3.33
2023-03-27T09:07:59.965Z,3.35
2023-03-27T09:08:59.983Z,3.31
2023-03-27T09:09:59.937Z,3.31
2023-03-27T09:10:59.933Z,3.35
2023-03-27T09:11:59.900Z,3.33
2023-03-27T09:12:59.927Z,3.22
2023-03-27T09:13:59.911Z,3.19
2023-03-27T09:14:59.921Z,3.22
2023-03-27T09:16:00.023Z,3.28
2023-03-27T09:16:59.851Z,3.35
2023-03-27T09:17:59.867Z,3.34
2023-03-27T09:18:59.844Z,3.34
2023-03-27T09:19:59.819Z,3.39
2023-03-27T09:20:59.811Z,3.42
2023-03-27T09:21:59.810Z,3.42
2023-03-27T09:22:59.780Z,3.42
2023-03-27T09:23:59.797Z,3.44
2023-03-27T09:24:59.813Z,3.46
2023-03-27T09:25:59.766Z,3.54
2023-03-27T09:27:07.056Z,3.60
2023-03-27T09:27:59.746Z,3.62
2023-03-27T09:28:59.803Z,3.57
2023-03-27T09:30:05.594Z,3.62
2023-03-27T09:30:59.821Z,3.60
2023-03-27T09:31:59.697Z,3.59
2023-03-27T09:32:59.737Z,3.60
2023-03-27T09:33:59.667Z,3.64
2023-03-27T09:34:59.680Z,3.71
2023-03-27T09:36:00.035Z,3.70
2023-03-27T09:36:59.731Z,3.71
2023-03-27T09:37:59.605Z,3.70
2023-03-27T09:38:59.644Z,3.72
2023-03-27T09:39:59.613Z,3.77
2023-03-27T09:40:59.589Z,3.80
2023-03-27T09:41:59.582Z,3.80
2023-03-27T09:42:59.574Z,3.86
2023-03-27T09:43:59.577Z,3.92
2023-03-27T09:44:59.550Z,3.99
2023-03-27T09:45:59.518Z,4.06
2023-03-27T09:46:59.580Z,4.10
2023-03-27T09:47:59.521Z,4.08
2023-03-27T09:48:59.512Z,4.04
2023-03-27T09:49:59.511Z,3.95
2023-03-27T09:50:59.512Z,3.88
2023-03-27T09:51:59.514Z,3.88
2023-03-27T09:52:59.469Z,3.84
2023-03-27T09:53:59.456Z,3.84
2023-03-27T09:54:59.440Z,3.86
2023-03-27T09:56:01.097Z,3.90
2023-03-27T09:56:59.457Z,3.99
2023-03-27T09:57:59.415Z,4.13
2023-03-27T09:58:59.394Z,4.26
2023-03-27T09:59:59.392Z,4.39
2023-03-27T10:00:59.543Z,4.50
2023-03-27T10:01:59.363Z,4.56
2023-03-27T10:02:59.398Z,4.50
2023-03-27T10:03:59.342Z,4.49
2023-03-27T10:04:59.360Z,4.46
2023-03-27T10:05:59.312Z,4.38
2023-03-27T10:06:59.290Z,4.36
2023-03-27T10:07:59.306Z,4.44
2023-03-27T10:08:59.305Z,4.50
2023-03-27T10:09:59.279Z,4.51
2023-03-27T10:10:59.497Z,4.49
2023-03-27T10:11:59.257Z,4.43
2023-03-27T10:12:59.249Z,4.39
2023-03-27T10:13:59.224Z,4.34
2023-03-27T10:14:59.244Z,4.34
2023-03-27T10:15:59.241Z,4.20
2023-03-27T10:16:59.225Z,4.14
2023-03-27T10:17:59.189Z,4.07
2023-03-27T10:18:59.178Z,4.13
2023-03-27T10:19:59.158Z,4.16
2023-03-27T10:20:59.315Z,4.25
2023-03-27T10:21:59.150Z,4.29
2023-03-27T10:22:59.111Z,4.38
2023-03-27T10:23:59.102Z,4.49
2023-03-27T10:24:59.105Z,4.64
2023-03-27T10:25:59.077Z,4.69
2023-03-27T10:26:59.110Z,4.83
2023-03-27T10:27:59.068Z,4.86
2023-03-27T10:28:59.071Z,4.80
2023-03-27T10:29:59.063Z,4.77
2023-03-27T10:30:59.290Z,4.72
2023-03-27T10:31:59.105Z,4.59
2023-03-27T10:32:59.041Z,4.53
2023-03-27T10:33:58.991Z,4.56
2023-03-27T10:34:58.997Z,4.46
2023-03-27T10:35:59.053Z,4.47
2023-03-27T10:36:58.976Z,4.47
2023-03-27T10:37:58.965Z,4.49
2023-03-27T10:38:58.954Z,4.39
2023-03-27T10:39:58.958Z,4.38
2023-03-27T10:40:59.049Z,4.44
2023-03-27T10:41:58.910Z,4.51
2023-03-27T10:42:58.889Z,4.61
2023-03-27T10:43:58.877Z,4.68
2023-03-27T10:44:58.857Z,4.62
2023-03-27T10:45:58.890Z,4.47
2023-03-27T10:46:58.881Z,4.26
2023-03-27T10:47:58.955Z,4.26
2023-03-27T10:48:58.829Z,4.29
2023-03-27T10:49:58.825Z,4.29
2023-03-27T10:50:58.930Z,4.32
2023-03-27T10:51:58.802Z,4.32
2023-03-27T10:52:58.836Z,4.38
2023-03-27T10:53:58.870Z,4.50
2023-03-27T10:54:58.771Z,4.62
2023-03-27T10:55:58.766Z,4.74
2023-03-27T10:56:58.786Z,4.83
2023-03-27T10:57:58.745Z,4.94
2023-03-27T10:58:58.720Z,5.05
2023-03-27T10:59:58.726Z,5.17
2023-03-27T11:00:59.190Z,5.35
2023-03-27T11:01:58.693Z,5.27
2023-03-27T11:02:58.737Z,5.02
2023-03-27T11:03:58.699Z,4.87
2023-03-27T11:04:58.650Z,4.88
2023-03-27T11:05:58.648Z,4.88
2023-03-27T11:06:58.621Z,4.91
2023-03-27T11:07:58.630Z,4.91
2023-03-27T11:08:58.647Z,4.96
2023-03-27T11:09:58.608Z,5.01
2023-03-27T11:10:58.787Z,5.04
2023-03-27T11:11:58.561Z,5.12
2023-03-27T11:12:58.570Z,5.14
2023-03-27T11:13:58.550Z,5.17
2023-03-27T11:14:58.621Z,5.26
2023-03-27T11:15:58.521Z,5.42
2023-03-27T11:16:58.540Z,5.51
2023-03-27T11:17:58.620Z,5.58
2023-03-27T11:18:58.474Z,5.55
2023-03-27T11:19:58.473Z,5.24
2023-03-27T11:20:58.624Z,5.12
2023-03-27T11:21:58.455Z,5.02
2023-03-27T11:22:58.455Z,4.94
2023-03-27T11:23:58.511Z,4.88
2023-03-27T11:24:58.404Z,4.72
2023-03-27T11:25:58.399Z,4.59
2023-03-27T11:26:58.476Z,4.46
2023-03-27T11:27:58.398Z,4.46
2023-03-27T11:28:58.374Z,4.46
2023-03-27T11:29:58.394Z,4.47
2023-03-27T11:30:58.592Z,4.54
2023-03-27T11:31:58.418Z,4.65
2023-03-27T11:32:58.345Z,4.74
2023-03-27T11:33:58.360Z,4.84
2023-03-27T11:34:58.306Z,4.99
2023-03-27T11:35:58.360Z,4.97
2023-03-27T11:36:58.291Z,5.02
2023-03-27T11:37:58.284Z,5.17
2023-03-27T11:38:58.278Z,5.35
2023-03-27T11:39:58.256Z,5.45
2023-03-27T11:40:58.542Z,5.58
2023-03-27T11:41:58.244Z,5.74
2023-03-27T11:42:58.288Z,5.92
2023-03-27T11:43:58.200Z,6.14
2023-03-27T11:44:58.198Z,6.40
2023-03-27T11:45:58.234Z,6.39
2023-03-27T11:46:58.195Z,6.36
2023-03-27T11:47:58.247Z,6.30
2023-03-27T11:48:58.150Z,6.33
2023-03-27T11:49:58.141Z,6.24
2023-03-27T11:50:58.411Z,6.13
2023-03-27T11:51:58.144Z,6.13
2023-03-27T11:52:58.097Z,6.10
2023-03-27T11:53:58.097Z,6.03
2023-03-27T11:54:58.080Z,6.03
2023-03-27T11:55:58.065Z,6.06
2023-03-27T11:56:58.148Z,6.11
2023-03-27T11:57:58.040Z,6.14
2023-03-27T11:58:58.033Z,6.20
2023-03-27T11:59:58.043Z,6.25
2023-03-27T12:00:58.351Z,6.35
2023-03-27T12:01:58.132Z,6.39
2023-03-27T12:02:58.073Z,6.33
2023-03-27T12:03:58.178Z,6.39
2023-03-27T12:04:57.971Z,6.30
2023-03-27T12:05:57.989Z,6.24
2023-03-27T12:07:03.986Z,6.35
2023-03-27T12:07:57.933Z,6.45
2023-03-27T12:08:57.930Z,6.61
2023-03-27T12:09:57.915Z,6.61
2023-03-27T12:10:58.117Z,6.58
2023-03-27T12:11:57.906Z,6.57
2023-03-27T12:12:57.885Z,6.65
2023-03-27T12:14:01.508Z,6.71
2023-03-27T12:14:57.866Z,6.63
2023-03-27T12:15:57.853Z,6.48
2023-03-27T12:16:57.904Z,6.38
2023-03-27T12:17:57.939Z,5.96
2023-03-27T12:19:03.930Z,5.69
2023-03-27T12:19:57.819Z,5.62
2023-03-27T12:20:57.779Z,5.59
2023-03-27T12:21:57.782Z,5.59
2023-03-27T12:22:57.813Z,5.62
2023-03-27T12:23:57.782Z,5.70
2023-03-27T12:25:00.038Z,5.85
2023-03-27T12:25:57.739Z,5.90
2023-03-27T12:26:57.739Z,6.01
2023-03-27T12:27:57.740Z,6.10
2023-03-27T12:28:57.699Z,6.17
2023-03-27T12:29:57.697Z,6.33
2023-03-27T12:30:57.873Z,6.50
2023-03-27T12:31:57.704Z,6.39
2023-03-27T12:32:59.626Z,6.35
2023-03-27T12:33:57.650Z,6.33
2023-03-27T12:34:57.660Z,6.19
2023-03-27T12:35:57.694Z,6.24
2023-03-27T12:36:57.614Z,6.17
2023-03-27T12:37:57.619Z,6.24
2023-03-27T12:38:57.585Z,6.38
2023-03-27T12:39:57.578Z,6.54
2023-03-27T12:40:57.819Z,6.73
2023-03-27T12:41:57.569Z,6.91
2023-03-27T12:42:57.532Z,7.01
2023-03-27T12:43:57.546Z,7.09
2023-03-27T12:44:59.952Z,7.16
2023-03-27T12:45:57.549Z,7.19
2023-03-27T12:46:57.518Z,7.19
2023-03-27T12:47:57.543Z,7.24
2023-03-27T12:48:57.493Z,7.16
2023-03-27T12:49:57.473Z,6.99
2023-03-27T12:50:57.786Z,6.75
2023-03-27T12:51:57.467Z,6.76
2023-03-27T12:52:57.445Z,6.83
2023-03-27T12:53:57.438Z,6.87
2023-03-27T12:54:57.412Z,6.81
2023-03-27T12:55:57.544Z,6.60
2023-03-27T12:56:57.476Z,6.50
2023-03-27T12:57:57.552Z,6.58
2023-03-27T12:58:57.365Z,6.71
2023-03-27T12:59:57.370Z,6.82
2023-03-27T13:00:57.537Z,6.89
2023-03-27T13:01:57.372Z,6.93
2023-03-27T13:02:57.443Z,6.89
2023-03-27T13:03:57.387Z,6.76
2023-03-27T13:04:57.293Z,6.54
2023-03-27T13:05:57.329Z,6.36
2023-03-27T13:06:57.289Z,6.33
2023-03-27T13:07:57.288Z,6.28
2023-03-27T13:08:57.257Z,6.19
2023-03-27T13:09:57.278Z,6.19
2023-03-27T13:10:57.472Z,6.11
2023-03-27T13:11:57.219Z,5.99
2023-03-27T13:12:57.206Z,5.96
2023-03-27T13:13:57.221Z,5.92
2023-03-27T13:14:57.203Z,6.01
2023-03-27T13:15:57.446Z,6.08
2023-03-27T13:16:57.147Z,6.10
2023-03-27T13:17:57.202Z,6.10
2023-03-27T13:18:57.164Z,6.06